Time,TemperatureF,DewpointF,PressureIn,WindDirection,WindDirectionDegrees,WindSpeedMPH,WindSpeedGustMPH,Humidity,HourlyPrecipIn,Conditions,Clouds,dailyrainin,SoftwareType,DateUTC
2013-02-12 00:00:00,5.7,2.4,29.78,SSE,158,0.0,0.0,86,0.00,CLR,,0.00,WeatherDisplay:10.37,2013-02-12 09:00:00,
2013-02-12 00:10:00,5.6,2.6,29.78,SSE,158,0.0,0.0,87,0.00,CLR,,0.00,WeatherDisplay:10.37,2013-02-12 09:10:00,
2013-02-12 00:15:00,5.5,2.0,29.78,SSE,158,0.0,0.0,85,0.00,CLR,,0.00,WeatherDisplay:10.37,2013-02-12 09:15:00,
2013-02-12 00:25:00,5.7,2.4,29.78,SSE,158,0.0,0.0,86,0.00,CLR,,0.00,WeatherDisplay:10.37,2013-02-12 09:25:00,
2013-02-12 00:30:00,5.7,2.4,29.78,SSE,158,0.0,0.0,86,0.00,CLR,,0.00,WeatherDisplay:10.37,2013-02-12 09:30:00,
2013-02-12 00:40:00,5.4,2.1,29.78,SSE,158,0.0,0.0,86,0.00,CLR,,0.00,WeatherDisplay:10.37,2013-02-12 09:40:00,
2013-02-12 00:45:00,5.4,2.6,29.78,SSE,158,0.0,0.0,88,0.00,CLR,,0.00,WeatherDisplay:10.37,2013-02-12 09:45:00,
2013-02-12 00:50:00,5.2,1.7,29.78,SSE,158,0.0,0.0,85,0.00,CLR,,0.00,WeatherDisplay:10.37,2013-02-12 09:50:00,
2013-02-12 00:55:00,5.2,1.7,29.78,SSE,158,0.0,0.0,85,0.00,CLR,,0.00,WeatherDisplay:10.37,2013-02-12 09:55:00,
2013-02-12 01:00:00,4.8,1.6,29.78,SSE,158,0.0,0.0,86,0.00,CLR,,0.00,WeatherDisplay:10.37,2013-02-12 10:00:00,
2013-02-12 01:15:00,5.2,2.2,29.78,SSE,158,0.0,0.0,87,0.00,CLR,,0.00,WeatherDisplay:10.37,2013-02-12 10:15:00,
2013-02-12 01:20:00,5.0,1.7,29.78,NNE,33,0.0,0.0,86,0.00,CLR,,0.00,WeatherDisplay:10.37,2013-02-12 10:20:00,
2013-02-12 01:25:00,4.7,1.7,29.78,North,0,0.0,0.0,87,0.00,CLR,,0.00,WeatherDisplay:10.37,2013-02-12 10:25:00,
2013-02-12 01:30:00,4.5,1.2,29.78,North,0,0.0,0.0,86,0.00,CLR,,0.00,WeatherDisplay:10.37,2013-02-12 10:30:00,
2013-02-12 01:40:00,5.1,1.6,29.78,North,0,0.0,0.0,85,0.00,CLR,,0.00,WeatherDisplay:10.37,2013-02-12 10:40:00,
2013-02-12 01:45:00,5.4,2.1,29.78,North,0,0.0,0.0,86,0.00,CLR,,0.00,WeatherDisplay:10.37,2013-02-12 10:45:00,
2013-02-12 01:54:00,5.5,2.7,29.78,North,0,0.0,0.0,88,0.00,CLR,,0.00,WeatherDisplay:10.37,2013-02-12 10:54:00,
2013-02-12 02:00:00,5.4,2.6,29.78,North,0,0.0,0.0,88,0.00,CLR,,0.00,WeatherDisplay:10.37,2013-02-12 11:00:00,
2013-02-12 02:10:00,6.3,3.5,29.78,North,0,0.0,0.0,88,0.00,CLR,,0.00,WeatherDisplay:10.37,2013-02-12 11:10:00,
2013-02-12 02:15:00,7.0,3.7,29.78,North,0,0.0,0.0,86,0.00,CLR,,0.00,WeatherDisplay:10.37,2013-02-12 11:15:00,
2013-02-12 02:25:00,7.9,5.1,29.78,North,0,0.0,0.0,88,0.00,CLR,,0.00,WeatherDisplay:10.37,2013-02-12 11:25:00,
2013-02-12 02:30:00,7.9,5.1,29.78,North,0,0.0,0.0,88,0.00,CLR,,0.00,WeatherDisplay:10.37,2013-02-12 11:30:00,
2013-02-12 02:40:00,7.3,4.8,29.78,North,0,0.0,0.0,89,0.00,CLR,,0.00,WeatherDisplay:10.37,2013-02-12 11:40:00,
2013-02-12 02:45:00,7.2,3.9,29.78,North,0,0.0,0.0,86,0.00,CLR,,0.00,WeatherDisplay:10.37,2013-02-12 11:45:00,
2013-02-12 02:54:00,7.5,4.7,29.78,North,0,0.0,0.0,88,0.00,CLR,,0.00,WeatherDisplay:10.37,2013-02-12 11:54:00,
2013-02-12 03:00:00,7.9,5.1,29.78,North,0,0.0,0.0,88,0.00,CLR,,0.00,WeatherDisplay:10.37,2013-02-12 12:00:00,
2013-02-12 03:05:00,8.2,5.4,29.78,North,0,0.0,0.0,88,0.00,CLR,,0.00,WeatherDisplay:10.37,2013-02-12 12:05:00,
2013-02-12 03:10:00,8.1,5.2,29.78,North,0,0.0,0.0,88,0.00,CLR,,0.00,WeatherDisplay:10.37,2013-02-12 12:10:00,
2013-02-12 03:15:00,8.1,6.0,29.78,North,0,0.0,0.0,91,0.00,CLR,,0.00,WeatherDisplay:10.37,2013-02-12 12:15:00,
2013-02-12 03:24:00,7.8,5.0,29.78,North,0,0.0,0.0,88,0.00,CLR,,0.00,WeatherDisplay:10.37,2013-02-12 12:24:00,
2013-02-12 03:30:00,7.6,4.6,29.78,North,0,0.0,0.0,87,0.00,CLR,,0.00,WeatherDisplay:10.37,2013-02-12 12:30:00,
2013-02-12 03:35:00,7.5,4.5,29.78,North,0,0.0,0.0,87,0.00,CLR,,0.00,WeatherDisplay:10.37,2013-02-12 12:35:00,
2013-02-12 03:40:00,7.5,4.5,29.78,North,0,0.0,0.0,87,0.00,CLR,,0.00,WeatherDisplay:10.37,2013-02-12 12:40:00,
2013-02-12 03:45:00,7.4,4.6,29.78,North,0,0.0,0.0,88,0.00,CLR,,0.00,WeatherDisplay:10.37,2013-02-12 12:45:00,
2013-02-12 03:50:00,7.2,4.1,29.78,North,0,0.0,0.0,87,0.00,CLR,,0.00,WeatherDisplay:10.37,2013-02-12 12:50:00,
2013-02-12 03:54:00,6.8,4.0,29.78,North,0,0.0,0.0,88,0.00,CLR,,0.00,WeatherDisplay:10.37,2013-02-12 12:54:00,
2013-02-12 04:00:00,6.2,3.2,29.78,North,0,0.0,0.0,87,0.00,CLR,,0.00,WeatherDisplay:10.37,2013-02-12 13:00:00,
2013-02-12 04:10:00,5.2,1.7,29.78,North,0,0.0,0.0,85,0.00,CLR,,0.00,WeatherDisplay:10.37,2013-02-12 13:10:00,
2013-02-12 04:15:00,4.5,1.2,29.78,North,0,0.0,0.0,86,0.00,CLR,,0.00,WeatherDisplay:10.37,2013-02-12 13:15:00,
2013-02-12 04:20:00,4.3,1.0,29.78,North,0,0.0,0.0,86,0.00,CLR,,0.00,WeatherDisplay:10.37,2013-02-12 13:20:00,
2013-02-12 04:25:00,4.3,0.5,29.78,North,0,0.0,0.0,84,0.00,CLR,,0.00,WeatherDisplay:10.37,2013-02-12 13:25:00,
2013-02-12 04:30:00,4.3,2.0,29.78,North,0,0.0,0.0,90,0.00,CLR,,0.00,WeatherDisplay:10.37,2013-02-12 13:30:00,
2013-02-12 04:40:00,4.5,1.2,29.78,North,0,0.0,0.0,86,0.00,CLR,,0.00,WeatherDisplay:10.37,2013-02-12 13:40:00,
2013-02-12 04:45:00,4.3,0.8,29.78,North,0,0.0,0.0,85,0.00,CLR,,0.00,WeatherDisplay:10.37,2013-02-12 13:45:00,
2013-02-12 04:54:00,4.1,0.6,29.78,North,0,0.0,0.0,85,0.00,CLR,,0.00,WeatherDisplay:10.37,2013-02-12 13:54:00,
2013-02-12 05:00:00,4.3,0.8,29.78,North,0,0.0,0.0,85,0.00,CLR,,0.00,WeatherDisplay:10.37,2013-02-12 14:00:00,
2013-02-12 05:09:00,4.5,1.2,29.78,North,0,0.0,0.0,86,0.00,CLR,,0.00,WeatherDisplay:10.37,2013-02-12 14:09:00,
2013-02-12 05:15:00,4.5,1.4,29.78,North,0,0.0,0.0,87,0.00,CLR,,0.00,WeatherDisplay:10.37,2013-02-12 14:15:00,
2013-02-12 05:25:00,4.8,1.6,29.78,North,0,0.0,0.0,86,0.00,CLR,,0.00,WeatherDisplay:10.37,2013-02-12 14:25:00,
2013-02-12 05:30:00,5.1,2.8,29.78,North,0,0.0,0.0,90,0.00,CLR,,0.00,WeatherDisplay:10.37,2013-02-12 14:30:00,
2013-02-12 05:39:00,4.8,1.6,29.78,North,0,0.0,0.0,86,0.00,CLR,,0.00,WeatherDisplay:10.37,2013-02-12 14:39:00,
2013-02-12 05:45:00,4.4,0.9,29.78,North,0,0.0,0.0,85,0.00,CLR,,0.00,WeatherDisplay:10.37,2013-02-12 14:45:00,
2013-02-12 05:55:00,3.2,0.2,29.78,North,0,0.0,0.0,87,0.00,CLR,,0.00,WeatherDisplay:10.37,2013-02-12 14:55:00,
2013-02-12 06:00:00,3.0,0.0,29.78,North,0,0.0,0.0,87,0.00,CLR,,0.00,WeatherDisplay:10.37,2013-02-12 15:00:00,
2013-02-12 06:10:00,2.3,-0.2,29.78,North,0,0.0,0.0,89,0.00,CLR,,0.00,WeatherDisplay:10.37,2013-02-12 15:10:00,
2013-02-12 06:15:00,2.3,-1.4,29.78,North,0,0.0,0.0,84,0.00,CLR,,0.00,WeatherDisplay:10.37,2013-02-12 15:15:00,
2013-02-12 06:25:00,2.3,-1.2,29.78,North,0,0.0,0.0,85,0.00,CLR,,0.00,WeatherDisplay:10.37,2013-02-12 15:25:00,
2013-02-12 06:30:00,2.5,-0.8,29.78,North,0,0.0,0.0,86,0.00,CLR,,0.00,WeatherDisplay:10.37,2013-02-12 15:30:00,
2013-02-12 06:39:00,3.6,0.3,29.78,North,0,0.0,0.0,86,0.00,CLR,,0.00,WeatherDisplay:10.37,2013-02-12 15:39:00,
2013-02-12 06:45:00,3.9,0.7,29.79,North,0,0.0,0.0,86,0.00,CLR,,0.00,WeatherDisplay:10.37,2013-02-12 15:45:00,
2013-02-12 06:54:00,3.6,0.3,29.79,North,0,0.0,0.0,86,0.00,CLR,,0.00,WeatherDisplay:10.37,2013-02-12 15:54:00,
2013-02-12 07:00:00,3.8,0.6,29.78,North,0,0.0,0.0,86,0.00,CLR,,0.00,WeatherDisplay:10.37,2013-02-12 16:00:00,
2013-02-12 07:05:00,3.9,0.7,29.78,North,0,0.0,0.0,86,0.00,CLR,,0.00,WeatherDisplay:10.37,2013-02-12 16:05:00,
2013-02-12 07:10:00,4.1,1.6,29.78,North,0,0.0,0.0,89,0.00,CLR,,0.00,WeatherDisplay:10.37,2013-02-12 16:10:00,
2013-02-12 07:15:00,4.3,2.7,29.78,North,0,0.0,0.0,93,0.00,CLR,,0.00,WeatherDisplay:10.37,2013-02-12 16:15:00,
2013-02-12 07:24:00,4.6,1.5,29.78,North,0,0.0,0.0,87,0.00,CLR,,0.00,WeatherDisplay:10.37,2013-02-12 16:24:00,
2013-02-12 07:30:00,4.8,2.0,29.78,North,0,0.0,0.0,88,0.00,CLR,,0.00,WeatherDisplay:10.37,2013-02-12 16:30:00,
2013-02-12 07:40:00,4.6,1.4,29.78,North,0,0.0,0.0,86,0.00,CLR,,0.00,WeatherDisplay:10.37,2013-02-12 16:40:00,
2013-02-12 07:45:00,4.5,1.2,29.78,North,0,0.0,0.0,86,0.00,CLR,,0.00,WeatherDisplay:10.37,2013-02-12 16:45:00,
2013-02-12 07:50:00,4.5,2.4,29.79,North,0,0.0,0.0,91,0.00,CLR,,0.00,WeatherDisplay:10.37,2013-02-12 16:50:00,
2013-02-12 07:55:00,4.5,1.2,29.79,North,0,0.0,0.0,86,0.00,CLR,,0.00,WeatherDisplay:10.37,2013-02-12 16:55:00,
2013-02-12 08:00:00,4.8,1.3,29.79,North,0,0.0,0.0,85,0.00,CLR,,0.00,WeatherDisplay:10.37,2013-02-12 17:00:00,
2013-02-12 08:05:00,5.2,1.9,29.79,North,0,0.0,0.0,86,0.00,CLR,,0.00,WeatherDisplay:10.37,2013-02-12 17:05:00,
2013-02-12 08:10:00,5.2,1.9,29.80,North,0,0.0,0.0,86,0.00,CLR,,0.00,WeatherDisplay:10.37,2013-02-12 17:10:00,
2013-02-12 08:15:00,5.0,1.7,29.80,North,0,0.0,0.0,86,0.00,CLR,,0.00,WeatherDisplay:10.37,2013-02-12 17:15:00,
2013-02-12 08:25:00,5.2,1.7,29.80,North,0,0.0,0.0,85,0.00,CLR,,0.00,WeatherDisplay:10.37,2013-02-12 17:25:00,
2013-02-12 08:30:00,5.1,1.8,29.79,North,0,0.0,0.0,86,0.00,CLR,,0.00,WeatherDisplay:10.37,2013-02-12 17:30:00,
2013-02-12 08:40:00,4.2,0.9,29.80,North,0,0.0,0.0,86,0.00,CLR,,0.00,WeatherDisplay:10.37,2013-02-12 17:40:00,
2013-02-12 08:45:00,3.9,1.4,29.80,North,0,0.0,0.0,89,0.00,CLR,,0.00,WeatherDisplay:10.37,2013-02-12 17:45:00,
2013-02-12 08:50:00,3.9,0.2,29.80,North,0,0.0,0.0,84,0.00,CLR,,0.00,WeatherDisplay:10.37,2013-02-12 17:50:00,
2013-02-12 08:54:00,4.0,0.3,29.80,North,0,0.0,0.0,84,0.00,CLR,,0.00,WeatherDisplay:10.37,2013-02-12 17:54:00,
2013-02-12 09:00:00,4.3,1.0,29.80,North,0,0.0,0.0,86,0.00,CLR,,0.00,WeatherDisplay:10.37,2013-02-12 18:00:00,
2013-02-12 09:10:00,4.6,1.6,29.80,North,0,0.0,0.0,87,0.00,CLR,,0.00,WeatherDisplay:10.37,2013-02-12 18:10:00,
2013-02-12 09:15:00,4.9,2.1,29.80,North,0,0.0,0.0,88,0.00,CLR,,0.00,WeatherDisplay:10.37,2013-02-12 18:15:00,
2013-02-12 09:24:00,4.8,1.8,29.81,North,0,0.0,0.0,87,0.00,CLR,,0.00,WeatherDisplay:10.37,2013-02-12 18:24:00,
2013-02-12 09:30:00,4.9,1.9,29.81,North,0,0.0,0.0,87,0.00,CLR,,0.00,WeatherDisplay:10.37,2013-02-12 18:30:00,
2013-02-12 09:39:00,5.4,2.1,29.81,North,0,0.0,0.0,86,0.00,CLR,,0.00,WeatherDisplay:10.37,2013-02-12 18:39:00,
2013-02-12 09:45:00,5.9,3.8,29.81,North,0,0.0,0.0,91,0.00,CLR,,0.00,WeatherDisplay:10.37,2013-02-12 18:45:00,
2013-02-12 09:54:00,5.7,2.4,29.81,North,0,0.0,0.0,86,0.00,CLR,,0.00,WeatherDisplay:10.37,2013-02-12 18:54:00,
2013-02-12 10:00:00,6.1,3.0,29.81,North,0,0.0,0.0,87,0.00,CLR,,0.00,WeatherDisplay:10.37,2013-02-12 19:00:00,
2013-02-12 10:05:00,6.6,3.3,29.81,North,0,0.0,0.0,86,0.00,CLR,,0.00,WeatherDisplay:10.37,2013-02-12 19:05:00,
2013-02-12 10:10:00,6.7,3.2,29.81,North,0,0.0,0.0,85,0.00,CLR,,0.00,WeatherDisplay:10.37,2013-02-12 19:10:00,
2013-02-12 10:15:00,6.8,3.8,29.81,North,0,0.0,0.0,87,0.00,CLR,,0.00,WeatherDisplay:10.37,2013-02-12 19:15:00,
2013-02-12 10:25:00,7.3,5.0,29.81,North,0,0.0,0.0,90,0.00,CLR,,0.00,WeatherDisplay:10.37,2013-02-12 19:25:00,
2013-02-12 10:30:00,7.2,2.8,29.82,North,0,0.0,0.0,82,0.00,CLR,,0.00,WeatherDisplay:10.37,2013-02-12 19:30:00,
2013-02-12 10:39:00,7.2,2.6,29.82,North,0,0.0,0.0,81,0.00,CLR,,0.00,WeatherDisplay:10.37,2013-02-12 19:39:00,
2013-02-12 10:45:00,7.3,3.0,29.82,North,0,0.0,0.0,82,0.00,CLR,,0.00,WeatherDisplay:10.37,2013-02-12 19:45:00,
2013-02-12 10:54:00,7.9,4.4,29.82,North,0,0.0,0.0,85,0.00,CLR,,0.00,WeatherDisplay:10.37,2013-02-12 19:54:00,
2013-02-12 11:00:00,8.4,4.6,29.82,North,0,0.0,0.0,84,0.00,CLR,,0.00,WeatherDisplay:10.37,2013-02-12 20:00:00,
2013-02-12 11:10:00,9.4,5.8,29.82,North,0,0.0,0.0,85,0.00,CLR,,0.00,WeatherDisplay:10.37,2013-02-12 20:10:00,
2013-02-12 11:15:00,10.2,7.1,29.83,North,0,0.0,0.0,87,0.00,CLR,,0.00,WeatherDisplay:10.37,2013-02-12 20:15:00,
2013-02-12 11:20:00,10.6,7.2,29.83,North,0,0.0,0.0,86,0.00,CLR,,0.00,WeatherDisplay:10.37,2013-02-12 20:20:00,
2013-02-12 11:25:00,10.4,7.0,29.83,North,0,0.0,0.0,86,0.00,CLR,,0.00,WeatherDisplay:10.37,2013-02-12 20:25:00,
2013-02-12 11:30:00,10.1,6.5,29.82,North,0,0.0,0.0,85,0.00,CLR,,0.00,WeatherDisplay:10.37,2013-02-12 20:30:00,
2013-02-12 11:40:00,9.9,6.5,29.83,North,0,0.0,0.0,86,0.00,CLR,,0.00,WeatherDisplay:10.37,2013-02-12 20:40:00,
2013-02-12 11:45:00,10.0,6.4,29.83,North,0,0.0,0.0,85,0.00,CLR,,0.00,WeatherDisplay:10.37,2013-02-12 20:45:00,
2013-02-12 11:55:00,10.2,7.1,29.83,North,0,0.0,0.0,87,0.00,CLR,,0.00,WeatherDisplay:10.37,2013-02-12 20:55:00,
2013-02-12 12:00:00,10.0,7.2,29.83,North,0,0.0,0.0,88,0.00,CLR,,0.00,WeatherDisplay:10.37,2013-02-12 21:00:00,
2013-02-12 12:10:00,10.0,6.9,29.83,North,0,0.0,0.0,87,0.00,CLR,,0.00,WeatherDisplay:10.37,2013-02-12 21:10:00,
2013-02-12 12:15:00,10.0,6.7,29.83,North,0,0.0,0.0,86,0.00,CLR,,0.00,WeatherDisplay:10.37,2013-02-12 21:15:00,
2013-02-12 12:25:00,10.4,7.6,29.83,North,0,0.0,0.0,88,0.00,CLR,,0.00,WeatherDisplay:10.37,2013-02-12 21:25:00,
2013-02-12 12:30:00,10.6,7.5,29.83,North,0,0.0,0.0,87,0.00,CLR,,0.00,WeatherDisplay:10.37,2013-02-12 21:30:00,
2013-02-12 12:40:00,10.8,7.4,29.83,North,0,0.0,0.0,86,0.00,CLR,,0.00,WeatherDisplay:10.37,2013-02-12 21:40:00,
2013-02-12 12:45:00,11.0,7.4,29.83,North,0,0.0,0.0,85,0.00,CLR,,0.00,WeatherDisplay:10.37,2013-02-12 21:45:00,
2013-02-12 12:55:00,11.3,7.9,29.83,North,0,0.0,0.0,86,0.00,CLR,,0.00,WeatherDisplay:10.37,2013-02-12 21:55:00,
2013-02-12 13:00:00,11.5,8.4,29.83,North,0,0.0,0.0,87,0.00,CLR,,0.00,WeatherDisplay:10.37,2013-02-12 22:00:00,
2013-02-12 13:09:00,11.6,8.2,29.84,North,0,0.0,0.0,86,0.00,CLR,,0.00,WeatherDisplay:10.37,2013-02-12 22:09:00,
2013-02-12 13:15:00,12.0,8.6,29.83,North,0,0.0,0.0,86,0.00,CLR,,0.00,WeatherDisplay:10.37,2013-02-12 22:15:00,
2013-02-12 13:25:00,12.8,9.2,29.83,North,0,0.0,0.0,85,0.00,CLR,,0.00,WeatherDisplay:10.37,2013-02-12 22:25:00,
2013-02-12 13:30:00,12.6,9.2,29.84,North,0,0.0,0.0,86,0.00,CLR,,0.00,WeatherDisplay:10.37,2013-02-12 22:30:00,
2013-02-12 13:35:00,12.4,9.0,29.84,North,0,0.0,0.0,86,0.00,CLR,,0.00,WeatherDisplay:10.37,2013-02-12 22:35:00,
2013-02-12 13:40:00,12.0,8.6,29.84,North,0,0.0,0.0,86,0.00,CLR,,0.00,WeatherDisplay:10.37,2013-02-12 22:40:00,
2013-02-12 13:45:00,11.7,8.3,29.84,North,0,0.0,0.0,86,0.00,CLR,,0.00,WeatherDisplay:10.37,2013-02-12 22:45:00,
2013-02-12 13:55:00,11.7,8.3,29.84,North,0,0.0,0.0,86,0.00,CLR,,0.00,WeatherDisplay:10.37,2013-02-12 22:55:00,
2013-02-12 14:00:00,11.7,7.8,29.84,North,0,0.0,0.0,84,0.00,CLR,,0.00,WeatherDisplay:10.37,2013-02-12 23:00:00,
2013-02-12 14:10:00,12.4,9.0,29.84,North,0,0.0,0.0,86,0.00,CLR,,0.00,WeatherDisplay:10.37,2013-02-12 23:10:00,
2013-02-12 14:15:00,12.6,8.9,29.84,North,0,0.0,0.0,85,0.00,CLR,,0.00,WeatherDisplay:10.37,2013-02-12 23:15:00,
2013-02-12 14:20:00,12.9,9.8,29.84,North,0,0.0,0.0,87,0.00,CLR,,0.00,WeatherDisplay:10.37,2013-02-12 23:20:00,
2013-02-12 14:24:00,13.1,9.7,29.84,North,0,0.0,0.0,86,0.00,CLR,,0.00,WeatherDisplay:10.37,2013-02-12 23:24:00,
2013-02-12 14:30:00,13.3,9.9,29.84,North,0,0.0,0.0,86,0.00,CLR,,0.00,WeatherDisplay:10.37,2013-02-12 23:30:00,
2013-02-12 14:40:00,13.4,10.0,29.84,North,0,0.0,0.0,86,0.00,CLR,,0.00,WeatherDisplay:10.37,2013-02-12 23:40:00,
2013-02-12 14:45:00,13.3,9.9,29.84,North,0,0.0,0.0,86,0.00,CLR,,0.00,WeatherDisplay:10.37,2013-02-12 23:45:00,
2013-02-12 14:55:00,12.9,9.3,29.84,North,0,0.0,0.0,85,0.00,CLR,,0.00,WeatherDisplay:10.37,2013-02-12 23:55:00,
2013-02-12 15:00:00,12.7,9.1,29.84,North,0,0.0,0.0,85,0.00,CLR,,0.00,WeatherDisplay:10.37,2013-02-13 00:00:00,
2013-02-12 15:10:00,12.6,9.2,29.84,North,0,0.0,0.0,86,0.00,CLR,,0.00,WeatherDisplay:10.37,2013-02-13 00:10:00,
2013-02-12 15:15:00,12.4,9.0,29.84,North,0,0.0,0.0,86,0.00,CLR,,0.00,WeatherDisplay:10.37,2013-02-13 00:15:00,
2013-02-12 15:20:00,12.6,9.4,29.84,North,0,0.0,0.0,87,0.00,CLR,,0.00,WeatherDisplay:10.37,2013-02-13 00:20:00,
2013-02-12 15:25:00,12.7,10.1,29.84,North,0,0.0,0.0,89,0.00,CLR,,0.00,WeatherDisplay:10.37,2013-02-13 00:25:00,
2013-02-12 15:30:00,13.4,10.2,29.84,North,0,0.0,0.0,87,0.00,CLR,,0.00,WeatherDisplay:10.37,2013-02-13 00:30:00,
2013-02-12 15:40:00,17.2,14.2,29.84,North,0,0.0,0.0,88,0.00,CLR,,0.00,WeatherDisplay:10.37,2013-02-13 00:40:00,
2013-02-12 15:45:00,18.9,16.5,29.84,North,0,0.0,0.0,90,0.00,CLR,,0.00,WeatherDisplay:10.37,2013-02-13 00:45:00,
2013-02-12 15:55:00,21.3,18.3,29.84,North,0,1.0,0.0,88,0.00,CLR,,0.00,WeatherDisplay:10.37,2013-02-13 00:55:00,
2013-02-12 16:00:00,21.6,18.8,29.84,North,0,0.0,0.0,89,0.00,CLR,,0.00,WeatherDisplay:10.37,2013-02-13 01:00:00,
2013-02-12 16:10:00,21.4,18.9,29.84,North,0,0.0,0.0,90,0.00,CLR,,0.00,WeatherDisplay:10.37,2013-02-13 01:10:00,
2013-02-12 16:15:00,20.6,17.1,29.84,North,0,0.0,0.0,86,0.00,CLR,,0.00,WeatherDisplay:10.37,2013-02-13 01:15:00,
2013-02-12 16:25:00,19.6,16.3,29.84,North,0,1.0,0.0,87,0.00,CLR,,0.00,WeatherDisplay:10.37,2013-02-13 01:25:00,
2013-02-12 16:30:00,18.6,15.4,29.84,North,0,0.0,0.0,87,0.00,CLR,,0.00,WeatherDisplay:10.37,2013-02-13 01:30:00,
2013-02-12 16:35:00,16.8,14.1,29.84,North,0,0.0,0.0,89,0.00,CLR,,0.00,WeatherDisplay:10.37,2013-02-13 01:35:00,
2013-02-12 16:40:00,15.3,12.1,29.84,North,0,0.0,0.0,87,0.00,CLR,,0.00,WeatherDisplay:10.37,2013-02-13 01:40:00,
2013-02-12 16:45:00,13.8,10.4,29.84,North,0,0.0,0.0,86,0.00,CLR,,0.00,WeatherDisplay:10.37,2013-02-13 01:45:00,
2013-02-12 16:55:00,11.8,8.4,29.84,North,0,0.0,0.0,86,0.00,CLR,,0.00,WeatherDisplay:10.37,2013-02-13 01:55:00,
2013-02-12 17:00:00,11.1,7.2,29.84,North,0,0.0,0.0,84,0.00,CLR,,0.00,WeatherDisplay:10.37,2013-02-13 02:00:00,
2013-02-12 17:10:00,10.4,7.0,29.84,North,0,0.0,0.0,86,0.00,CLR,,0.00,WeatherDisplay:10.37,2013-02-13 02:10:00,
2013-02-12 17:15:00,10.2,7.4,29.84,North,0,1.0,0.0,88,0.00,CLR,,0.00,WeatherDisplay:10.37,2013-02-13 02:15:00,
2013-02-12 17:20:00,10.6,7.2,29.84,North,0,1.0,0.0,86,0.00,CLR,,0.00,WeatherDisplay:10.37,2013-02-13 02:20:00,
2013-02-12 17:24:00,10.8,7.9,29.84,North,0,0.0,0.0,88,0.00,CLR,,0.00,WeatherDisplay:10.37,2013-02-13 02:24:00,
2013-02-12 17:30:00,10.6,7.7,29.84,North,0,0.0,0.0,88,0.00,CLR,,0.00,WeatherDisplay:10.37,2013-02-13 02:30:00,
2013-02-12 17:40:00,10.2,7.1,29.84,North,0,0.0,0.0,87,0.00,CLR,,0.00,WeatherDisplay:10.37,2013-02-13 02:40:00,
2013-02-12 17:45:00,9.7,6.3,29.84,North,0,0.0,0.0,86,0.00,CLR,,0.00,WeatherDisplay:10.37,2013-02-13 02:45:00,
2013-02-12 17:55:00,9.0,5.9,29.84,North,0,0.0,0.0,87,0.00,CLR,,0.00,WeatherDisplay:10.37,2013-02-13 02:55:00,
2013-02-12 18:00:00,8.6,5.3,29.84,North,0,0.0,0.0,86,0.00,CLR,,0.00,WeatherDisplay:10.37,2013-02-13 03:00:00,
2013-02-12 18:10:00,8.1,4.5,29.85,North,0,0.0,0.0,85,0.00,CLR,,0.00,WeatherDisplay:10.37,2013-02-13 03:10:00,
2013-02-12 18:15:00,8.2,4.9,29.84,North,0,0.0,0.0,86,0.00,CLR,,0.00,WeatherDisplay:10.37,2013-02-13 03:15:00,
2013-02-12 18:20:00,8.4,5.3,29.84,North,0,0.0,0.0,87,0.00,CLR,,0.00,WeatherDisplay:10.37,2013-02-13 03:20:00,
2013-02-12 18:25:00,8.4,5.3,29.85,North,0,0.0,0.0,87,0.00,CLR,,0.00,WeatherDisplay:10.37,2013-02-13 03:25:00,
2013-02-12 18:30:00,8.4,5.6,29.84,North,0,0.0,0.0,88,0.00,CLR,,0.00,WeatherDisplay:10.37,2013-02-13 03:30:00,
2013-02-12 18:40:00,7.9,4.3,29.85,North,0,0.0,0.0,85,0.00,CLR,,0.00,WeatherDisplay:10.37,2013-02-13 03:40:00,
2013-02-12 18:45:00,7.9,4.3,29.85,North,0,0.0,0.0,85,0.00,CLR,,0.00,WeatherDisplay:10.37,2013-02-13 03:45:00,
2013-02-12 18:55:00,7.9,4.8,29.85,North,0,0.0,0.0,87,0.00,CLR,,0.00,WeatherDisplay:10.37,2013-02-13 03:55:00,
2013-02-12 19:00:00,7.9,5.6,29.85,North,0,0.0,0.0,90,0.00,CLR,,0.00,WeatherDisplay:10.37,2013-02-13 04:00:00,
2013-02-12 19:10:00,8.2,4.7,29.85,North,0,0.0,0.0,85,0.00,CLR,,0.00,WeatherDisplay:10.37,2013-02-13 04:10:00,
2013-02-12 19:15:00,8.2,4.7,29.85,North,0,0.0,0.0,85,0.00,CLR,,0.00,WeatherDisplay:10.37,2013-02-13 04:15:00,
2013-02-12 19:20:00,8.5,5.2,29.85,North,0,0.0,0.0,86,0.00,CLR,,0.00,WeatherDisplay:10.37,2013-02-13 04:20:00,
2013-02-12 19:25:00,8.8,6.4,29.85,North,0,0.0,0.0,90,0.00,CLR,,0.00,WeatherDisplay:10.37,2013-02-13 04:25:00,
2013-02-12 19:30:00,8.4,5.8,29.85,North,0,0.0,0.0,89,0.00,CLR,,0.00,WeatherDisplay:10.37,2013-02-13 04:30:00,
2013-02-12 19:40:00,7.7,4.9,29.85,North,0,0.0,0.0,88,0.00,CLR,,0.00,WeatherDisplay:10.37,2013-02-13 04:40:00,
2013-02-12 19:45:00,7.4,4.6,29.85,North,0,0.0,0.0,88,0.00,CLR,,0.00,WeatherDisplay:10.37,2013-02-13 04:45:00,
2013-02-12 19:55:00,7.9,5.1,29.85,North,0,0.0,0.0,88,0.00,CLR,,0.00,WeatherDisplay:10.37,2013-02-13 04:55:00,
2013-02-12 20:00:00,8.0,4.9,29.85,North,0,0.0,0.0,87,0.00,CLR,,0.00,WeatherDisplay:10.37,2013-02-13 05:00:00,
2013-02-12 20:05:00,7.9,5.1,29.85,North,0,0.0,0.0,88,0.00,CLR,,0.00,WeatherDisplay:10.37,2013-02-13 05:05:00,
2013-02-12 20:10:00,7.9,4.8,29.85,North,0,0.0,0.0,87,0.00,CLR,,0.00,WeatherDisplay:10.37,2013-02-13 05:10:00,
2013-02-12 20:15:00,7.9,3.8,29.85,North,0,0.0,0.0,83,0.00,CLR,,0.00,WeatherDisplay:10.37,2013-02-13 05:15:00,
2013-02-12 20:25:00,8.6,5.5,29.85,North,0,0.0,0.0,87,0.00,CLR,,0.00,WeatherDisplay:10.37,2013-02-13 05:25:00,
2013-02-12 20:30:00,8.8,6.4,29.85,North,0,0.0,0.0,90,0.00,CLR,,0.00,WeatherDisplay:10.37,2013-02-13 05:30:00,
2013-02-12 20:40:00,8.3,5.5,29.85,North,0,0.0,0.0,88,0.00,CLR,,0.00,WeatherDisplay:10.37,2013-02-13 05:40:00,
2013-02-12 20:45:00,7.9,4.8,29.85,North,0,0.0,0.0,87,0.00,CLR,,0.00,WeatherDisplay:10.37,2013-02-13 05:45:00,
2013-02-12 20:55:00,7.5,4.7,29.85,North,0,0.0,0.0,88,0.00,CLR,,0.00,WeatherDisplay:10.37,2013-02-13 05:55:00,
2013-02-12 21:00:00,7.5,4.7,29.85,North,0,0.0,0.0,88,0.00,CLR,,0.00,WeatherDisplay:10.37,2013-02-13 06:00:00,
2013-02-12 21:10:00,7.4,4.1,29.85,North,0,0.0,0.0,86,0.00,CLR,,0.00,WeatherDisplay:10.37,2013-02-13 06:10:00,
2013-02-12 21:15:00,7.4,4.3,29.85,North,0,0.0,0.0,87,0.00,CLR,,0.00,WeatherDisplay:10.37,2013-02-13 06:15:00,
2013-02-12 21:24:00,7.3,4.0,29.85,North,0,0.0,0.0,86,0.00,CLR,,0.00,WeatherDisplay:10.37,2013-02-13 06:24:00,
2013-02-12 21:30:00,7.5,4.4,29.85,North,0,0.0,0.0,87,0.00,CLR,,0.00,WeatherDisplay:10.37,2013-02-13 06:30:00,
2013-02-12 21:35:00,7.9,5.1,29.85,North,0,0.0,0.0,88,0.00,CLR,,0.00,WeatherDisplay:10.37,2013-02-13 06:35:00,
2013-02-12 21:40:00,8.1,5.2,29.85,North,0,0.0,0.0,88,0.00,CLR,,0.00,WeatherDisplay:10.37,2013-02-13 06:40:00,
2013-02-12 21:45:00,8.2,5.2,29.85,North,0,0.0,0.0,87,0.00,CLR,,0.00,WeatherDisplay:10.37,2013-02-13 06:45:00,
2013-02-12 21:55:00,8.7,5.8,29.85,North,0,0.0,0.0,88,0.00,CLR,,0.00,WeatherDisplay:10.37,2013-02-13 06:55:00,
2013-02-12 22:00:00,8.6,5.5,29.85,North,0,0.0,0.0,87,0.00,CLR,,0.00,WeatherDisplay:10.37,2013-02-13 07:00:00,
2013-02-12 22:10:00,8.8,5.4,29.84,North,0,0.0,0.0,86,0.00,CLR,,0.00,WeatherDisplay:10.37,2013-02-13 07:10:00,
2013-02-12 22:15:00,8.8,5.7,29.84,North,0,0.0,0.0,87,0.00,CLR,,0.00,WeatherDisplay:10.37,2013-02-13 07:15:00,
2013-02-12 22:25:00,8.6,5.3,29.84,North,0,0.0,0.0,86,0.00,CLR,,0.00,WeatherDisplay:10.37,2013-02-13 07:25:00,
2013-02-12 22:30:00,8.4,6.1,29.84,North,0,0.0,0.0,90,0.00,CLR,,0.00,WeatherDisplay:10.37,2013-02-13 07:30:00,
2013-02-12 22:40:00,8.4,6.3,29.85,North,0,0.0,0.0,91,0.00,CLR,,0.00,WeatherDisplay:10.37,2013-02-13 07:40:00,
2013-02-12 22:45:00,8.4,5.1,29.84,North,0,0.0,0.0,86,0.00,CLR,,0.00,WeatherDisplay:10.37,2013-02-13 07:45:00,
2013-02-12 22:55:00,8.4,6.6,29.84,North,0,0.0,0.0,92,0.00,CLR,,0.00,WeatherDisplay:10.37,2013-02-13 07:55:00,
2013-02-12 23:00:00,8.5,5.4,29.84,North,0,0.0,0.0,87,0.00,CLR,,0.00,WeatherDisplay:10.37,2013-02-13 08:00:00,
2013-02-12 23:10:00,8.6,5.5,29.84,North,0,0.0,0.0,87,0.00,CLR,,0.00,WeatherDisplay:10.37,2013-02-13 08:10:00,
2013-02-12 23:15:00,8.8,5.7,29.84,North,0,0.0,0.0,87,0.00,CLR,,0.00,WeatherDisplay:10.37,2013-02-13 08:15:00,
2013-02-12 23:20:00,8.8,6.2,29.84,North,0,0.0,0.0,89,0.00,CLR,,0.00,WeatherDisplay:10.37,2013-02-13 08:20:00,
2013-02-12 23:25:00,8.8,6.2,29.84,North,0,0.0,0.0,89,0.00,CLR,,0.00,WeatherDisplay:10.37,2013-02-13 08:25:00,
2013-02-12 23:30:00,8.4,5.3,29.84,North,0,0.0,0.0,87,0.00,CLR,,0.00,WeatherDisplay:10.37,2013-02-13 08:30:00,
2013-02-12 23:40:00,8.4,5.1,29.84,North,0,0.0,0.0,86,0.00,CLR,,0.00,WeatherDisplay:10.37,2013-02-13 08:40:00,
2013-02-12 23:45:00,8.4,5.3,29.84,North,0,0.0,0.0,87,0.00,CLR,,0.00,WeatherDisplay:10.37,2013-02-13 08:45:00,
2013-02-12 23:55:00,8.4,5.6,29.84,North,0,0.0,0.0,88,0.00,CLR,,0.00,WeatherDisplay:10.37,2013-02-13 08:55:00,